Terminal Aerodrome Forecast
Issued by NWS La Crosse, WI

Home | Current Version | Previous Version | Text Only | Print | Product List | Glossary On
Versions: 1 2 3 4 5 6 7 8 9 10 11 12 13 14 15 16 17 18 19 20 21 22 23 24 25 26 27 28 29 30 31 32 33 34 35 36 37 38 39 40 41 42 43
310
FTUS43 KARX 072325
TAFLSE
TAF
KLSE 072325Z 0800/0824 27014KT P6SM -SHSN OVC028
     FM080900 28015KT 4SM -SHSN OVC020
     FM081700 30015KT P6SM -SHSN OVC022=

USA.gov is the U.S. government's official web portal to all federal, state and local government web resources and services.